Time;durP1;ratioP1;P1;durP2;ratioP2;P2;SDS_P1;SDS_P2;PMS_P1;PMS_P2;Temp;Humidity;BMP_temperature;BMP_pressure;BME280_temperature;BME280_humidity;BME280_pressure;Samples;Min_cycle;Max_cycle;Signal;HPM_P1;HPM_P2
2022/07/20 00:00:27;;;;;;;;;;;23.10;83.70;;;;;;5096132;28;19947;-57
2022/07/20 00:02:55;;;;;;;;;;;23.10;83.60;;;;;;5067756;28;19932;-57
2022/07/20 00:05:22;;;;;;;;;;;23.10;83.60;;;;;;5084797;28;20388;-57
2022/07/20 00:07:50;;;;;;;;;;;23.10;83.40;;;;;;5086130;28;19924;-57
2022/07/20 00:13:04;;;;;;;;;;;23.10;83.10;;;;;;5068929;28;19939;-56
2022/07/20 00:15:31;;;;;;;;;;;23.10;83.20;;;;;;5065507;28;19928;-57
2022/07/20 00:17:59;;;;;;;;;;;23.10;83.00;;;;;;5079437;28;19924;-57
2022/07/20 00:20:27;;;;;;;;;;;23.00;82.80;;;;;;5084753;28;19928;-56
2022/07/20 00:22:56;;;;;;;;;;;23.00;82.90;;;;;;5073133;28;20521;-56
2022/07/20 00:25:24;;;;;;;;;;;23.00;82.90;;;;;;5106683;28;19928;-57
2022/07/20 00:27:52;;;;;;;;;;;22.90;82.80;;;;;;5085341;28;19959;-57
2022/07/20 00:30:20;;;;;;;;;;;22.90;82.80;;;;;;5087800;28;20374;-57
2022/07/20 00:32:47;;;;;;;;;;;22.80;82.70;;;;;;5088508;28;19928;-57
2022/07/20 00:35:15;;;;;;;;;;;22.80;82.70;;;;;;5083726;28;20500;-57
2022/07/20 00:37:43;;;;;;;;;;;22.80;82.90;;;;;;5070164;28;19925;-57
2022/07/20 00:40:12;;;;;;;;;;;22.70;83.00;;;;;;5078457;28;20303;-57
2022/07/20 00:42:40;;;;;;;;;;;22.70;83.00;;;;;;5075522;28;19931;-57
2022/07/20 00:45:08;;;;;;;;;;;22.60;82.90;;;;;;5088039;28;20293;-56
2022/07/20 00:47:36;;;;;;;;;;;22.60;83.00;;;;;;5109721;28;19928;-57
2022/07/20 00:50:04;;;;;;;;;;;22.50;83.20;;;;;;5084808;28;19959;-57
2022/07/20 00:52:32;;;;;;;;;;;22.50;83.60;;;;;;5074502;28;19929;-57
2022/07/20 00:54:59;;;;;;;;;;;22.50;83.40;;;;;;5090531;28;19931;-56
2022/07/20 00:57:27;;;;;;;;;;;22.40;83.70;;;;;;5084822;28;19925;-57
2022/07/20 00:59:55;;;;;;;;;;;22.40;83.80;;;;;;5094120;28;19935;-56
2022/07/20 01:02:22;;;;;;;;;;;22.30;83.90;;;;;;5077815;28;19924;-56
2022/07/20 01:04:50;;;;;;;;;;;22.20;84.10;;;;;;5088634;28;19931;-56
2022/07/20 01:07:17;;;;;;;;;;;22.20;84.20;;;;;;5086196;28;20288;-56
2022/07/20 01:09:45;;;;;;;;;;;22.20;84.20;;;;;;5111193;28;20382;-55
2022/07/20 01:12:13;;;;;;;;;;;22.10;84.20;;;;;;5070031;28;19954;-56
2022/07/20 01:14:40;;;;;;;;;;;22.10;84.40;;;;;;5085724;28;20448;-56
2022/07/20 01:17:08;;;;;;;;;;;22.00;84.30;;;;;;5072748;28;19932;-57
2022/07/20 01:19:36;;;;;;;;;;;22.00;84.40;;;;;;5080003;28;19924;-56
2022/07/20 01:22:04;;;;;;;;;;;21.90;84.40;;;;;;5080201;28;20276;-56
2022/07/20 01:24:31;;;;;;;;;;;21.80;84.50;;;;;;5089807;28;19931;-56
2022/07/20 01:26:59;;;;;;;;;;;21.80;84.90;;;;;;5071978;28;19924;-57
2022/07/20 01:29:26;;;;;;;;;;;21.80;85.20;;;;;;5099081;28;19936;-57
2022/07/20 01:31:54;;;;;;;;;;;21.70;85.40;;;;;;5076820;28;19931;-56
2022/07/20 01:34:21;;;;;;;;;;;21.70;85.40;;;;;;5074602;28;19925;-57
2022/07/20 01:36:49;;;;;;;;;;;21.60;85.40;;;;;;5074048;28;20367;-57
2022/07/20 01:39:16;;;;;;;;;;;21.60;85.40;;;;;;5090469;28;19946;-56
2022/07/20 01:41:44;;;;;;;;;;;21.60;85.30;;;;;;5092664;28;19960;-57
2022/07/20 01:44:11;;;;;;;;;;;21.60;85.40;;;;;;5091070;28;19924;-56
2022/07/20 01:46:39;;;;;;;;;;;21.50;85.40;;;;;;5082533;28;19947;-57
2022/07/20 01:49:07;;;;;;;;;;;21.50;85.90;;;;;;5087435;28;19939;-57
2022/07/20 01:51:35;;;;;;;;;;;21.40;85.90;;;;;;5087916;28;20376;-57
2022/07/20 01:54:02;;;;;;;;;;;21.30;86.40;;;;;;5092932;28;19931;-57
2022/07/20 01:56:30;;;;;;;;;;;21.30;87.00;;;;;;5088906;28;19931;-57
2022/07/20 01:58:57;;;;;;;;;;;21.20;87.20;;;;;;5078071;28;19925;-56
2022/07/20 02:01:25;;;;;;;;;;;21.10;87.30;;;;;;5077166;28;19932;-56
2022/07/20 02:03:52;;;;;;;;;;;21.00;87.60;;;;;;5085632;28;19924;-57
2022/07/20 02:06:20;;;;;;;;;;;21.00;87.90;;;;;;5076376;28;19924;-56
2022/07/20 02:08:47;;;;;;;;;;;20.90;88.20;;;;;;5092912;28;19931;-56
2022/07/20 02:11:16;;;;;;;;;;;20.90;88.70;;;;;;5083286;28;19925;-56
2022/07/20 02:13:43;;;;;;;;;;;20.80;88.90;;;;;;5084887;28;19924;-56
2022/07/20 02:16:17;;;;;;;;;;;20.80;89.20;;;;;;5082953;28;19924;-57
2022/07/20 02:18:49;;;;;;;;;;;20.70;89.20;;;;;;5077581;28;20407;-56
2022/07/20 02:21:18;;;;;;;;;;;20.70;89.80;;;;;;5093802;28;19924;-56
2022/07/20 02:23:45;;;;;;;;;;;20.60;90.10;;;;;;5078312;28;20414;-57
2022/07/20 02:26:14;;;;;;;;;;;20.60;90.20;;;;;;5090832;28;19924;-55
2022/07/20 02:28:42;;;;;;;;;;;20.50;90.30;;;;;;5093725;28;19924;-56
2022/07/20 02:31:09;;;;;;;;;;;20.50;90.60;;;;;;5079119;28;19971;-57
2022/07/20 02:33:37;;;;;;;;;;;20.40;90.80;;;;;;5073343;28;19925;-56
2022/07/20 02:36:04;;;;;;;;;;;20.40;90.90;;;;;;5073277;28;19937;-56
2022/07/20 02:38:32;;;;;;;;;;;20.40;91.00;;;;;;5081818;28;19924;-57
2022/07/20 02:40:59;;;;;;;;;;;20.40;91.20;;;;;;5090914;28;19930;-56
2022/07/20 02:43:27;;;;;;;;;;;20.30;91.40;;;;;;5096303;28;20296;-56
2022/07/20 02:45:55;;;;;;;;;;;20.30;91.70;;;;;;5089891;28;20432;-57
2022/07/20 02:48:22;;;;;;;;;;;20.30;91.70;;;;;;5083191;28;19924;-56
2022/07/20 02:50:50;;;;;;;;;;;20.30;91.80;;;;;;5071563;28;19932;-56
2022/07/20 02:53:17;;;;;;;;;;;20.30;91.90;;;;;;5074598;28;19928;-55
2022/07/20 02:55:45;;;;;;;;;;;20.30;92.30;;;;;;5073575;28;19943;-56
2022/07/20 02:58:12;;;;;;;;;;;20.30;92.20;;;;;;5072589;28;19947;-56
2022/07/20 03:00:41;;;;;;;;;;;20.30;92.50;;;;;;5089711;28;19925;-55
2022/07/20 03:03:09;;;;;;;;;;;20.30;92.50;;;;;;5090804;28;20380;-56
2022/07/20 03:05:37;;;;;;;;;;;20.20;92.70;;;;;;5091392;28;19924;-56
2022/07/20 03:08:05;;;;;;;;;;;20.20;92.80;;;;;;5092894;28;19931;-56
2022/07/20 03:10:33;;;;;;;;;;;20.10;92.90;;;;;;5093353;28;19924;-55
2022/07/20 03:13:01;;;;;;;;;;;20.10;93.10;;;;;;5091506;28;20364;-56
2022/07/20 03:15:28;;;;;;;;;;;20.00;93.10;;;;;;5079838;28;20287;-55
2022/07/20 03:17:56;;;;;;;;;;;20.00;93.40;;;;;;5087769;28;19924;-55
2022/07/20 03:20:25;;;;;;;;;;;19.90;93.60;;;;;;5091786;28;19924;-56
2022/07/20 03:22:53;;;;;;;;;;;19.90;93.70;;;;;;5090401;28;20287;-55
2022/07/20 03:25:20;;;;;;;;;;;19.80;94.00;;;;;;5086729;28;20007;-55
2022/07/20 03:27:48;;;;;;;;;;;19.80;94.30;;;;;;5082090;28;20295;-55
2022/07/20 03:30:16;;;;;;;;;;;19.70;94.50;;;;;;5074751;28;19928;-55
2022/07/20 03:32:43;;;;;;;;;;;19.60;94.60;;;;;;5081796;28;19924;-55
2022/07/20 03:35:11;;;;;;;;;;;19.60;94.90;;;;;;5092650;28;20394;-56
2022/07/20 03:37:39;;;;;;;;;;;19.50;95.20;;;;;;5075972;28;19925;-56
2022/07/20 03:40:07;;;;;;;;;;;19.40;95.50;;;;;;5091338;28;19931;-56
2022/07/20 03:42:35;;;;;;;;;;;19.30;95.60;;;;;;5095571;28;20383;-56
2022/07/20 03:45:02;;;;;;;;;;;19.30;95.70;;;;;;5084610;28;19924;-56
2022/07/20 03:47:30;;;;;;;;;;;19.30;96.20;;;;;;5089420;28;19947;-55
2022/07/20 03:49:58;;;;;;;;;;;19.20;96.20;;;;;;5070783;28;19937;-56
2022/07/20 03:52:25;;;;;;;;;;;19.20;96.70;;;;;;5071306;28;20397;-56
2022/07/20 03:54:53;;;;;;;;;;;19.20;96.90;;;;;;5072047;28;19956;-56
2022/07/20 03:57:21;;;;;;;;;;;19.10;97.30;;;;;;5083441;28;19931;-56
2022/07/20 03:59:48;;;;;;;;;;;19.10;97.60;;;;;;5091864;28;19924;-56
2022/07/20 04:02:15;;;;;;;;;;;19.10;98.00;;;;;;5091490;28;19928;-56
2022/07/20 04:04:46;;;;;;;;;;;19.10;98.50;;;;;;5088578;28;19924;-56
2022/07/20 04:07:15;;;;;;;;;;;19.10;98.80;;;;;;5083725;28;20296;-59
2022/07/20 04:09:46;;;;;;;;;;;19.10;99.10;;;;;;5091911;28;19924;-56
2022/07/20 04:12:18;;;;;;;;;;;19.10;99.30;;;;;;5106141;28;19924;-56
2022/07/20 04:14:46;;;;;;;;;;;19.10;99.60;;;;;;5075412;28;19931;-57
2022/07/20 04:17:14;;;;;;;;;;;19.20;99.70;;;;;;5071005;28;19931;-58
2022/07/20 04:19:42;;;;;;;;;;;19.20;99.80;;;;;;5090991;28;19947;-56
2022/07/20 04:22:09;;;;;;;;;;;19.20;99.90;;;;;;5084555;28;20410;-56
2022/07/20 04:24:37;;;;;;;;;;;19.20;99.90;;;;;;5091163;28;19924;-56
2022/07/20 04:27:04;;;;;;;;;;;19.20;99.90;;;;;;5071191;28;19931;-56
2022/07/20 04:29:32;;;;;;;;;;;19.20;99.90;;;;;;5090043;28;19935;-56
2022/07/20 04:31:59;;;;;;;;;;;19.20;99.90;;;;;;5091751;28;19924;-57
2022/07/20 04:34:27;;;;;;;;;;;19.10;99.90;;;;;;5091020;28;19924;-56
2022/07/20 04:36:55;;;;;;;;;;;19.10;99.90;;;;;;5088361;28;19924;-56
2022/07/20 04:39:22;;;;;;;;;;;19.00;99.90;;;;;;5077245;28;19995;-56
2022/07/20 04:41:50;;;;;;;;;;;19.00;99.90;;;;;;5107413;28;19924;-57
2022/07/20 04:44:17;;;;;;;;;;;19.00;99.90;;;;;;5111991;28;19931;-56
2022/07/20 04:46:47;;;;;;;;;;;19.00;99.90;;;;;;5092610;28;19924;-56
2022/07/20 04:49:15;;;;;;;;;;;19.00;99.90;;;;;;5069289;28;19975;-56
2022/07/20 04:51:43;;;;;;;;;;;18.90;99.90;;;;;;5075648;28;19924;-56
2022/07/20 04:54:10;;;;;;;;;;;18.90;99.90;;;;;;5071321;27;20376;-56
2022/07/20 04:56:38;;;;;;;;;;;18.90;99.90;;;;;;5068006;28;20535;-55
2022/07/20 04:59:05;;;;;;;;;;;18.90;99.90;;;;;;5072750;28;19931;-56
2022/07/20 05:01:33;;;;;;;;;;;18.80;99.90;;;;;;5067946;28;19932;-55
2022/07/20 05:04:00;;;;;;;;;;;18.80;99.90;;;;;;5064417;28;20269;-56
2022/07/20 05:06:28;;;;;;;;;;;18.80;99.90;;;;;;5068549;28;19925;-56
2022/07/20 05:08:55;;;;;;;;;;;18.80;99.90;;;;;;5079409;28;19935;-56
2022/07/20 05:11:23;;;;;;;;;;;18.80;99.90;;;;;;5082373;28;19932;-56
2022/07/20 05:13:50;;;;;;;;;;;18.70;99.90;;;;;;5083788;28;19924;-56
2022/07/20 05:16:18;;;;;;;;;;;18.60;99.90;;;;;;5085201;28;19936;-55
2022/07/20 05:18:45;;;;;;;;;;;18.70;99.90;;;;;;5099384;28;20310;-56
2022/07/20 05:21:13;;;;;;;;;;;18.60;99.90;;;;;;5091142;28;19931;-56
2022/07/20 05:23:41;;;;;;;;;;;18.60;99.90;;;;;;5085406;28;19939;-56
2022/07/20 05:26:08;;;;;;;;;;;18.60;99.90;;;;;;5083711;28;20323;-55
2022/07/20 05:28:36;;;;;;;;;;;18.60;99.90;;;;;;5098770;28;19928;-56
2022/07/20 05:31:04;;;;;;;;;;;18.60;99.90;;;;;;5093048;28;19924;-56
2022/07/20 05:33:31;;;;;;;;;;;18.50;99.90;;;;;;5088479;28;19924;-56
2022/07/20 05:36:02;;;;;;;;;;;18.50;99.90;;;;;;5073728;28;19931;-56
2022/07/20 05:38:30;;;;;;;;;;;18.50;99.90;;;;;;5080537;28;20411;-56
2022/07/20 05:41:05;;;;;;;;;;;18.50;99.90;;;;;;5097741;28;19931;-56
2022/07/20 05:43:32;;;;;;;;;;;18.50;99.90;;;;;;5092103;28;20408;-56
2022/07/20 05:46:00;;;;;;;;;;;18.50;99.90;;;;;;5082909;28;19931;-59
2022/07/20 05:48:29;;;;;;;;;;;18.50;99.90;;;;;;5103464;28;19924;-55
2022/07/20 05:50:57;;;;;;;;;;;18.50;99.90;;;;;;5090801;28;20432;-55
2022/07/20 05:53:25;;;;;;;;;;;18.60;99.90;;;;;;5077719;28;20212;-55
2022/07/20 05:55:52;;;;;;;;;;;18.60;99.90;;;;;;5076287;28;20490;-55
2022/07/20 05:58:20;;;;;;;;;;;18.60;99.90;;;;;;5083383;28;19925;-55
2022/07/20 06:00:47;;;;;;;;;;;18.60;99.90;;;;;;5075016;28;20402;-55
2022/07/20 06:03:15;;;;;;;;;;;18.60;99.90;;;;;;5079157;28;19924;-56
2022/07/20 06:05:43;;;;;;;;;;;18.60;99.90;;;;;;5068460;28;20295;-55
2022/07/20 06:08:10;;;;;;;;;;;18.60;99.90;;;;;;5071687;28;19925;-55
2022/07/20 06:10:38;;;;;;;;;;;18.70;99.90;;;;;;5088754;28;19931;-55
2022/07/20 06:13:05;;;;;;;;;;;18.70;99.90;;;;;;5083467;28;19931;-56
2022/07/20 06:15:36;;;;;;;;;;;18.60;99.90;;;;;;5088639;28;19928;-56
2022/07/20 06:18:04;;;;;;;;;;;18.60;99.90;;;;;;5074187;28;20376;-56
2022/07/20 06:20:32;;;;;;;;;;;18.60;99.90;;;;;;5072957;28;19924;-56
2022/07/20 06:23:00;;;;;;;;;;;18.60;99.90;;;;;;5081018;28;19924;-56
2022/07/20 06:25:28;;;;;;;;;;;18.70;99.90;;;;;;5089901;28;20303;-56
2022/07/20 06:28:00;;;;;;;;;;;18.70;99.90;;;;;;5077312;28;19932;-55
2022/07/20 06:30:28;;;;;;;;;;;18.70;99.90;;;;;;5069561;28;19932;-56
2022/07/20 06:32:56;;;;;;;;;;;18.70;99.90;;;;;;5084769;28;19923;-55
2022/07/20 06:35:24;;;;;;;;;;;18.70;99.90;;;;;;5083901;28;19934;-55
2022/07/20 06:37:53;;;;;;;;;;;18.70;99.90;;;;;;5073814;28;19934;-56
2022/07/20 06:40:21;;;;;;;;;;;18.70;99.90;;;;;;5081409;28;19935;-55
2022/07/20 06:42:48;;;;;;;;;;;18.70;99.90;;;;;;5058760;28;19948;-55
2022/07/20 06:45:16;;;;;;;;;;;18.70;99.90;;;;;;5074474;28;19924;-56
2022/07/20 06:47:43;;;;;;;;;;;18.80;99.90;;;;;;5070279;28;20376;-55
2022/07/20 06:50:11;;;;;;;;;;;18.80;99.90;;;;;;5078466;28;20536;-56
2022/07/20 06:52:38;;;;;;;;;;;18.90;99.90;;;;;;5084113;28;20375;-55
2022/07/20 06:55:06;;;;;;;;;;;19.00;99.90;;;;;;5083858;28;19943;-56
2022/07/20 06:57:34;;;;;;;;;;;19.00;99.90;;;;;;5073986;28;19934;-57
2022/07/20 07:00:01;;;;;;;;;;;19.10;99.90;;;;;;5075010;28;19924;-56
2022/07/20 07:02:29;;;;;;;;;;;19.10;99.90;;;;;;5078329;28;19935;-56
2022/07/20 07:04:57;;;;;;;;;;;19.10;99.90;;;;;;5068947;28;20511;-56
2022/07/20 07:07:25;;;;;;;;;;;19.10;99.90;;;;;;5065437;28;19940;-57
2022/07/20 07:09:53;;;;;;;;;;;19.10;99.90;;;;;;5068640;28;21734;-56
2022/07/20 07:12:20;;;;;;;;;;;19.20;99.90;;;;;;5071317;28;19932;-56
2022/07/20 07:14:48;;;;;;;;;;;19.30;99.90;;;;;;5071147;28;19939;-56
2022/07/20 07:17:22;;;;;;;;;;;19.40;99.90;;;;;;5078258;28;19931;-56
2022/07/20 07:19:49;;;;;;;;;;;19.50;99.90;;;;;;5074537;28;20002;-56
2022/07/20 07:22:17;;;;;;;;;;;19.70;99.90;;;;;;5071278;28;19924;-57
2022/07/20 07:24:45;;;;;;;;;;;19.80;99.90;;;;;;5070160;28;19939;-56
2022/07/20 07:27:12;;;;;;;;;;;19.90;99.90;;;;;;5073283;28;19924;-56
2022/07/20 07:29:40;;;;;;;;;;;20.00;99.90;;;;;;5073326;28;20412;-56
2022/07/20 07:32:07;;;;;;;;;;;20.00;99.90;;;;;;5068962;28;19925;-56
2022/07/20 07:34:35;;;;;;;;;;;20.00;99.70;;;;;;5073543;28;19927;-55
2022/07/20 07:37:02;;;;;;;;;;;20.00;99.70;;;;;;5067619;28;19928;-56
2022/07/20 07:39:30;;;;;;;;;;;20.00;99.30;;;;;;5070016;28;19932;-56
2022/07/20 07:41:57;;;;;;;;;;;19.90;99.30;;;;;;5077949;28;19924;-56
2022/07/20 07:44:25;;;;;;;;;;;20.00;99.30;;;;;;5089164;28;19924;-55
2022/07/20 07:46:52;;;;;;;;;;;19.80;99.10;;;;;;5088551;28;20540;-55
2022/07/20 07:49:20;;;;;;;;;;;19.80;99.30;;;;;;5083533;28;20315;-57
2022/07/20 07:51:47;;;;;;;;;;;19.70;99.50;;;;;;5077573;28;19925;-56
2022/07/20 07:54:15;;;;;;;;;;;19.80;99.70;;;;;;5079447;28;20371;-56
2022/07/20 07:56:43;;;;;;;;;;;19.80;99.90;;;;;;5070038;28;19925;-56
2022/07/20 07:59:10;;;;;;;;;;;19.90;99.70;;;;;;5097261;28;19924;-57
2022/07/20 08:01:58;;;;;;;;;;;19.90;99.20;;;;;;5080066;28;19924;-56
2022/07/20 08:04:25;;;;;;;;;;;20.00;99.40;;;;;;5084069;28;19932;-56
2022/07/20 08:06:53;;;;;;;;;;;20.00;99.40;;;;;;5081154;28;19924;-56
2022/07/20 08:09:20;;;;;;;;;;;20.10;99.40;;;;;;5074915;28;19932;-55
2022/07/20 08:11:48;;;;;;;;;;;20.20;99.00;;;;;;5070644;28;20315;-56
2022/07/20 08:14:15;;;;;;;;;;;20.20;98.90;;;;;;5072839;28;19924;-55
2022/07/20 08:16:43;;;;;;;;;;;20.20;98.60;;;;;;5074676;28;19924;-55
2022/07/20 08:19:10;;;;;;;;;;;20.20;98.60;;;;;;5069735;28;19931;-55
2022/07/20 08:21:38;;;;;;;;;;;20.30;98.80;;;;;;5064446;28;19924;-56
2022/07/20 08:24:06;;;;;;;;;;;20.30;99.00;;;;;;5092393;28;19932;-56
2022/07/20 08:26:33;;;;;;;;;;;20.40;98.90;;;;;;5070138;28;19946;-56
2022/07/20 08:29:01;;;;;;;;;;;20.50;99.00;;;;;;5088942;28;19947;-55
2022/07/20 08:31:36;;;;;;;;;;;20.60;98.20;;;;;;5080023;28;19932;-56
2022/07/20 08:34:03;;;;;;;;;;;20.60;98.20;;;;;;5073487;28;20400;-56
2022/07/20 08:36:31;;;;;;;;;;;20.60;97.70;;;;;;5068343;28;19938;-55
2022/07/20 08:39:00;;;;;;;;;;;20.60;97.70;;;;;;5077681;28;20300;-55
2022/07/20 08:41:27;;;;;;;;;;;20.60;97.80;;;;;;5071978;28;20394;-55
2022/07/20 08:43:55;;;;;;;;;;;20.50;98.10;;;;;;5071281;28;20399;-56
2022/07/20 08:46:23;;;;;;;;;;;20.60;98.20;;;;;;5071918;28;20331;-56
2022/07/20 08:48:51;;;;;;;;;;;20.80;98.20;;;;;;5075376;28;20367;-56
2022/07/20 08:51:18;;;;;;;;;;;21.00;98.20;;;;;;5077934;28;19940;-56
2022/07/20 08:53:47;;;;;;;;;;;21.10;97.30;;;;;;5074717;28;19924;-57
2022/07/20 08:56:15;;;;;;;;;;;21.20;97.00;;;;;;5066898;28;20037;-56
2022/07/20 08:58:42;;;;;;;;;;;21.20;96.50;;;;;;5078149;28;19924;-57
2022/07/20 09:01:17;;;;;;;;;;;21.30;96.10;;;;;;5081718;28;19932;-56
2022/07/20 09:04:02;;;;;;;;;;;21.30;96.30;;;;;;5079596;28;19936;-57
2022/07/20 09:06:47;;;;;;;;;;;21.30;96.30;;;;;;5078135;28;19928;-57
2022/07/20 09:09:15;;;;;;;;;;;21.40;96.00;;;;;;5075563;28;20410;-57
2022/07/20 09:11:45;;;;;;;;;;;21.50;95.80;;;;;;5071710;28;19932;-56
2022/07/20 09:14:12;;;;;;;;;;;21.50;95.60;;;;;;5084238;28;19924;-57
2022/07/20 09:16:46;;;;;;;;;;;21.60;95.70;;;;;;5081244;28;19924;-57
2022/07/20 09:19:15;;;;;;;;;;;21.70;95.40;;;;;;5075781;28;20315;-56
2022/07/20 09:21:48;;;;;;;;;;;21.80;94.80;;;;;;5073240;28;19929;-56
2022/07/20 09:24:17;;;;;;;;;;;21.70;94.80;;;;;;5069324;28;19924;-57
2022/07/20 09:27:02;;;;;;;;;;;21.70;94.60;;;;;;5074373;28;19935;-57
2022/07/20 09:29:29;;;;;;;;;;;21.60;94.60;;;;;;5079122;28;19924;-56
2022/07/20 09:32:00;;;;;;;;;;;21.60;94.30;;;;;;5073184;28;19935;-56
2022/07/20 09:34:28;;;;;;;;;;;21.60;94.40;;;;;;5076883;28;19936;-57
2022/07/20 09:36:55;;;;;;;;;;;21.60;94.20;;;;;;5073060;28;19947;-56
2022/07/20 09:39:23;;;;;;;;;;;21.60;94.50;;;;;;5077240;28;19924;-57
2022/07/20 09:41:51;;;;;;;;;;;21.70;94.70;;;;;;5071912;28;19943;-58
2022/07/20 09:44:26;;;;;;;;;;;21.90;94.70;;;;;;5072713;28;19924;-57
2022/07/20 09:46:54;;;;;;;;;;;21.90;94.00;;;;;;5075820;28;19955;-57
2022/07/20 09:49:29;;;;;;;;;;;21.90;93.90;;;;;;5096738;28;19924;-56
2022/07/20 09:51:58;;;;;;;;;;;21.80;94.10;;;;;;5070100;28;19932;-58
2022/07/20 09:54:46;;;;;;;;;;;21.60;94.00;;;;;;5074367;28;19928;-56
2022/07/20 09:57:15;;;;;;;;;;;21.50;94.20;;;;;;5069492;28;19947;-57
2022/07/20 09:59:46;;;;;;;;;;;21.40;94.60;;;;;;5083959;28;19935;-57
2022/07/20 10:02:14;;;;;;;;;;;21.30;94.70;;;;;;5084026;28;19931;-56
2022/07/20 10:04:43;;;;;;;;;;;21.10;94.80;;;;;;5073173;28;19924;-56
2022/07/20 10:07:11;;;;;;;;;;;21.10;95.00;;;;;;5079605;28;19932;-56
2022/07/20 10:09:38;;;;;;;;;;;21.00;95.30;;;;;;5077674;28;19933;-56
2022/07/20 10:12:06;;;;;;;;;;;21.00;95.20;;;;;;5077526;28;20383;-57
2022/07/20 10:14:34;;;;;;;;;;;21.00;95.30;;;;;;5081100;28;19924;-57
2022/07/20 10:17:03;;;;;;;;;;;21.00;95.40;;;;;;5090067;28;19924;-56
2022/07/20 10:19:41;;;;;;;;;;;21.00;95.40;;;;;;5070878;28;19940;-56
2022/07/20 10:22:12;;;;;;;;;;;21.00;95.20;;;;;;5075802;28;19932;-56
2022/07/20 10:24:42;;;;;;;;;;;21.10;95.00;;;;;;5084459;28;19931;-58
2022/07/20 10:27:16;;;;;;;;;;;21.10;94.50;;;;;;5086875;28;19946;-57
2022/07/20 10:29:44;;;;;;;;;;;21.20;94.60;;;;;;5075159;28;19924;-56
2022/07/20 10:32:11;;;;;;;;;;;21.30;93.70;;;;;;5075044;28;20501;-56
2022/07/20 10:34:46;;;;;;;;;;;21.30;93.80;;;;;;5071001;28;19924;-56
2022/07/20 10:37:17;;;;;;;;;;;21.40;93.60;;;;;;5070797;28;19943;-56
2022/07/20 10:39:48;;;;;;;;;;;21.50;93.90;;;;;;5084941;28;19928;-56
2022/07/20 10:42:19;;;;;;;;;;;21.80;94.10;;;;;;5074866;28;20303;-56
2022/07/20 10:44:47;;;;;;;;;;;22.10;93.30;;;;;;5080059;28;19925;-56
2022/07/20 10:47:33;;;;;;;;;;;22.40;93.40;;;;;;5069541;28;19925;-56
2022/07/20 10:50:02;;;;;;;;;;;22.60;92.60;;;;;;5075444;28;19935;-56
2022/07/20 10:52:31;;;;;;;;;;;23.00;92.20;;;;;;5090501;28;19924;-57
2022/07/20 10:54:59;;;;;;;;;;;23.20;92.00;;;;;;5087893;28;19924;-55
2022/07/20 10:57:26;;;;;;;;;;;23.40;91.40;;;;;;5075610;28;20380;-56
2022/07/20 11:00:23;;;;;;;;;;;23.70;91.20;;;;;;5078938;28;19947;-56
2022/07/20 11:02:51;;;;;;;;;;;23.90;91.00;;;;;;5067597;28;19931;-56
2022/07/20 11:05:20;;;;;;;;;;;24.20;90.10;;;;;;5081326;28;19928;-56
2022/07/20 11:07:49;;;;;;;;;;;24.30;88.90;;;;;;5084309;28;19931;-56
2022/07/20 11:10:24;;;;;;;;;;;24.30;88.60;;;;;;5080113;28;20376;-55
2022/07/20 11:12:58;;;;;;;;;;;24.30;88.60;;;;;;5079812;28;19924;-56
2022/07/20 11:15:42;;;;;;;;;;;24.40;87.00;;;;;;5080218;28;19928;-56
2022/07/20 11:18:10;;;;;;;;;;;24.40;87.80;;;;;;5084239;28;19946;-56
2022/07/20 11:21:04;;;;;;;;;;;24.40;86.90;;;;;;5084103;28;19924;-57
2022/07/20 11:23:40;;;;;;;;;;;24.30;86.80;;;;;;5073865;28;19924;-57
2022/07/20 11:26:10;;;;;;;;;;;24.10;87.10;;;;;;5067414;28;20386;-56
2022/07/20 11:28:44;;;;;;;;;;;24.00;87.10;;;;;;5076045;28;19929;-56
2022/07/20 11:31:12;;;;;;;;;;;23.80;86.80;;;;;;5070574;28;19925;-57
2022/07/20 11:33:41;;;;;;;;;;;23.70;87.50;;;;;;5082235;28;19931;-57
2022/07/20 11:36:11;;;;;;;;;;;23.60;87.70;;;;;;5089555;28;19931;-57
2022/07/20 11:38:40;;;;;;;;;;;23.50;87.90;;;;;;5084112;28;20375;-56
2022/07/20 11:41:10;;;;;;;;;;;23.60;89.00;;;;;;5073038;28;19929;-57
2022/07/20 11:43:47;;;;;;;;;;;23.70;88.40;;;;;;5061969;28;19932;-57
2022/07/20 11:46:15;;;;;;;;;;;23.90;87.60;;;;;;5068374;28;19998;-57
2022/07/20 11:48:44;;;;;;;;;;;23.90;87.00;;;;;;5070276;28;19936;-56
2022/07/20 11:51:32;;;;;;;;;;;24.00;87.10;;;;;;5069448;28;19924;-56
2022/07/20 11:53:59;;;;;;;;;;;24.00;87.50;;;;;;5101272;28;19930;-56
2022/07/20 11:56:28;;;;;;;;;;;24.00;87.00;;;;;;5097266;28;20274;-57
2022/07/20 11:58:56;;;;;;;;;;;23.90;87.20;;;;;;5081491;28;19931;-56
2022/07/20 12:01:24;;;;;;;;;;;23.90;87.10;;;;;;5073861;28;19932;-56
2022/07/20 12:04:02;;;;;;;;;;;24.00;86.00;;;;;;5070904;28;21354;-56
2022/07/20 12:06:31;;;;;;;;;;;24.00;86.00;;;;;;5081083;28;19923;-57
2022/07/20 12:09:02;;;;;;;;;;;24.00;85.60;;;;;;5074771;28;19932;-57
2022/07/20 12:11:29;;;;;;;;;;;24.10;83.30;;;;;;5069985;28;19924;-57
2022/07/20 12:13:57;;;;;;;;;;;23.90;84.00;;;;;;5071317;28;19933;-57
2022/07/20 12:16:25;;;;;;;;;;;23.90;84.00;;;;;;5077871;28;19924;-57
2022/07/20 12:18:52;;;;;;;;;;;23.90;83.90;;;;;;5080947;28;19935;-56
2022/07/20 12:21:22;;;;;;;;;;;23.80;84.90;;;;;;5068611;28;19924;-56
2022/07/20 12:23:50;;;;;;;;;;;24.00;85.80;;;;;;5075160;28;20414;-57
2022/07/20 12:26:20;;;;;;;;;;;24.40;85.80;;;;;;5068555;28;19932;-56
2022/07/20 12:28:48;;;;;;;;;;;24.60;84.90;;;;;;5079995;28;20257;-56
2022/07/20 12:31:24;;;;;;;;;;;24.90;84.80;;;;;;5068031;28;19928;-57
2022/07/20 12:34:04;;;;;;;;;;;25.00;84.10;;;;;;5087749;28;19924;-57
2022/07/20 12:36:35;;;;;;;;;;;25.10;82.20;;;;;;5069451;28;20268;-57
2022/07/20 12:39:04;;;;;;;;;;;25.00;81.30;;;;;;5085376;28;19928;-57
2022/07/20 12:41:32;;;;;;;;;;;24.90;81.40;;;;;;5070503;28;20394;-60
2022/07/20 12:44:27;;;;;;;;;;;24.80;80.70;;;;;;5090181;28;19924;-58
2022/07/20 12:46:55;;;;;;;;;;;24.90;80.80;;;;;;5074445;28;19936;-60
2022/07/20 12:49:25;;;;;;;;;;;24.90;80.20;;;;;;5086635;28;20327;-57
2022/07/20 12:51:54;;;;;;;;;;;24.90;78.90;;;;;;5074481;28;19935;-57
2022/07/20 12:54:22;;;;;;;;;;;24.70;79.30;;;;;;5088173;28;19924;-56
2022/07/20 12:57:10;;;;;;;;;;;24.70;80.10;;;;;;5072914;28;20518;-57
2022/07/20 12:59:37;;;;;;;;;;;24.40;80.50;;;;;;5088236;28;19924;-56
2022/07/20 13:02:05;;;;;;;;;;;24.30;80.20;;;;;;5079328;28;20390;-56
2022/07/20 13:04:32;;;;;;;;;;;24.10;81.00;;;;;;5084671;28;19924;-56
2022/07/20 13:07:01;;;;;;;;;;;23.90;81.50;;;;;;5070858;28;19929;-57
2022/07/20 13:09:29;;;;;;;;;;;23.90;82.00;;;;;;5075415;28;19929;-56
2022/07/20 13:11:56;;;;;;;;;;;24.10;82.80;;;;;;5084709;28;19936;-57
2022/07/20 13:14:24;;;;;;;;;;;24.20;82.30;;;;;;5091553;28;19928;-56
2022/07/20 13:16:53;;;;;;;;;;;24.20;82.70;;;;;;5087764;28;19942;-57
2022/07/20 13:19:20;;;;;;;;;;;24.20;83.40;;;;;;5080289;28;19940;-56
2022/07/20 13:21:48;;;;;;;;;;;24.20;83.40;;;;;;5087119;28;19987;-55
2022/07/20 13:24:16;;;;;;;;;;;24.20;83.70;;;;;;5079326;28;19925;-56
2022/07/20 13:26:44;;;;;;;;;;;24.10;83.40;;;;;;5088482;28;19935;-56
2022/07/20 13:29:12;;;;;;;;;;;24.00;83.90;;;;;;5090077;28;20363;-56
2022/07/20 13:31:39;;;;;;;;;;;23.90;83.90;;;;;;5071539;28;19928;-56
2022/07/20 13:34:17;;;;;;;;;;;23.90;84.10;;;;;;5075815;28;20229;-55
2022/07/20 13:36:45;;;;;;;;;;;23.90;84.70;;;;;;5074706;28;19940;-56
2022/07/20 13:39:12;;;;;;;;;;;24.00;84.60;;;;;;5078833;28;20355;-55
2022/07/20 13:41:40;;;;;;;;;;;24.10;84.40;;;;;;5083123;28;19951;-56
2022/07/20 13:44:08;;;;;;;;;;;24.20;84.10;;;;;;5080221;28;19933;-57
2022/07/20 13:46:35;;;;;;;;;;;24.40;83.70;;;;;;5070896;28;19928;-57
2022/07/20 13:49:03;;;;;;;;;;;24.40;82.30;;;;;;5070329;28;20366;-56
2022/07/20 13:51:31;;;;;;;;;;;24.50;82.30;;;;;;5082840;28;19931;-56
2022/07/20 13:54:19;;;;;;;;;;;24.60;83.20;;;;;;5077583;28;20284;-57
2022/07/20 13:56:46;;;;;;;;;;;24.90;82.00;;;;;;5070775;28;19936;-56
2022/07/20 13:59:14;;;;;;;;;;;24.90;80.50;;;;;;5071645;28;19940;-56
2022/07/20 14:01:44;;;;;;;;;;;24.90;80.50;;;;;;5082610;28;19931;-56
2022/07/20 14:04:13;;;;;;;;;;;24.70;81.40;;;;;;5089356;28;19932;-56
2022/07/20 14:06:42;;;;;;;;;;;24.50;81.60;;;;;;5070896;28;19937;-56
2022/07/20 14:09:10;;;;;;;;;;;24.40;81.10;;;;;;5076199;28;19925;-56
2022/07/20 14:11:37;;;;;;;;;;;24.20;81.30;;;;;;5070064;28;19928;-56
2022/07/20 14:14:07;;;;;;;;;;;24.20;81.40;;;;;;5073739;28;20387;-56
2022/07/20 14:16:34;;;;;;;;;;;24.30;81.80;;;;;;5069950;28;19925;-56
2022/07/20 14:19:02;;;;;;;;;;;24.40;81.30;;;;;;5078881;28;19925;-57
2022/07/20 14:21:30;;;;;;;;;;;24.50;81.50;;;;;;5071396;28;19932;-57
2022/07/20 14:23:57;;;;;;;;;;;24.60;80.50;;;;;;5080730;28;19929;-57
2022/07/20 14:26:25;;;;;;;;;;;24.70;80.40;;;;;;5079537;28;19924;-56
2022/07/20 14:28:52;;;;;;;;;;;24.70;80.10;;;;;;5069376;28;19931;-55